Latest Coastal Weather Observations for Wilsons Promontory

IDT60701

Issued at 12:41 am EST Saturday 23 May 2015 (issued every 10 minutes, with the page automatically refreshed every 10 minutes)

About coastal observations | Map of coastal stations | Coastal observations for TAS | Marine services | Other Formats
Station Details ID: 085096 Name: WILSONS PROMONTORY LIGHTHOUSE Lat: -39.13 Lon: 146.42 Height: 95.0 m
Data from the previous 72 hours. | See also: Recent months at Wilsons Promontory
Date/Time
EST
Temp

°C
Wind Pressure Rain
since 9am
mm
Weather Cloud Vis
km
Sea
Height
m
Swell
Dir
 
Speed
knots
Gust
knots
hPa Trend Height
m
Period
s
Dir
23/12:31am 11.1 W 23 33 1029.1 - 0.0 - - - - - - -
23/12:30am 11.0 WSW 24 33 1029.1 - 0.0 - - - - - - -
23/12:18am 11.1 WSW 22 32 1029.1 - 0.0 - - - - - - -
23/12:00am 11.0 W 24 30 1029.1 - 0.0 - - - - - - -
 
Date/Time
EST
Temp

°C
Wind Pressure Rain
since 9am
mm
Weather Cloud Vis
km
Sea
Height
m
Swell
Dir
 
Speed
knots
Gust
knots
hPa Trend Height
m
Period
s
Dir
22/11:38pm 11.2 W 24 34 1029.2 - 0.0 - - - - - - -
22/11:30pm 11.1 WSW 30 36 1028.8 - 0.0 - - - - - - -
22/11:00pm 10.9 WSW 25 36 1028.8 - 0.0 - - - - - - -
22/10:57pm 10.9 W 22 36 1028.9 - 0.0 - - - - - - -
22/10:46pm 10.9 W 21 35 1029.3 - 0.0 - - - - - - -
22/10:38pm 11.0 SW 32 35 1028.8 - 0.0 - - - - - - -
22/10:30pm 11.0 WSW 22 31 1029.1 - 0.0 - - - - - - -
22/10:23pm 11.3 W 20 31 1029.1 - 0.0 - - - - - - -
22/10:15pm 11.0 W 22 34 1029.2 - 0.0 - - - - - - -
22/10:00pm 11.1 SW 30 35 1028.7 - 0.0 - - - - - - -
22/09:36pm 11.2 WSW 22 32 1029.0 - 0.0 - - - - - - -
22/09:30pm 11.2 WSW 23 31 1029.2 - 0.0 - - - - - - -
22/09:02pm 11.3 WSW 23 36 1028.9 - 0.0 - - - - - - -
22/09:00pm 11.4 WSW 22 30 1029.3 - 0.0 - - - - - - -
22/08:30pm 11.3 SW 29 33 1028.9 - 0.0 - - - - - - -
22/08:00pm 11.4 WSW 21 27 1029.0 - 0.0 - - - - - - -
22/07:30pm 11.3 WSW 25 31 1028.4 - 0.0 - - - - - - -
22/07:10pm 11.2 SW 30 33 1028.0 - 0.0 - - - - - - -
22/07:05pm 11.4 W 20 30 1028.4 - 0.0 - - - - - - -
22/07:00pm 11.4 WSW 22 29 1028.4 - 0.0 - - - - - - -
22/06:55pm 11.3 WSW 22 29 1028.2 - 0.0 - - - - - - -
22/06:30pm 11.0 SW 28 34 1028.2 - 0.0 - - - - - - -
22/06:28pm 10.9 SW 29 34 1028.3 - 0.0 - - - - - - -
22/06:06pm 11.0 W 18 29 1028.2 - 0.0 - - - - - - -
22/06:00pm 11.0 W 18 25 1028.5 - 0.0 - - - - - - -
22/05:53pm 10.8 WSW 22 32 1028.4 - 0.0 - - - - - - -
22/05:30pm 10.9 WSW 27 34 1028.0 - 0.0 - - - - - - -
22/05:00pm 11.1 WSW 30 35 1027.8 - 0.0 - - - - - - -
22/04:30pm 10.9 WSW 25 31 1027.9 - 0.0 - - - - - - -
22/04:00pm 11.1 SW 26 31 1027.9 - 0.0 - - - - - - -
22/03:30pm 11.2 SW 26 30 1027.8 - 0.0 - - - - - - -
22/03:00pm 11.5 SW 25 29 1027.7 - 0.0 - - - - - - -
22/02:30pm 11.6 SW 22 27 1027.4 - 0.0 - - - - - - -
22/02:00pm 11.9 SW 22 29 1027.2 - 0.0 - - - - - - -
22/01:39pm 12.3 SW 19 29 1027.2 - 0.0 - - - - - - -
22/01:30pm 12.4 SSW 12 27 1027.1 - 0.0 - - - - - - -
22/01:00pm 12.6 NNE 7 14 1027.2 - 0.0 - - - - - - -
22/12:30pm 13.0 WSW 15 21 1027.6 - 0.0 - - - - - - -
22/12:00pm 13.0 WSW 17 22 1027.7 - 0.0 - - - - - - -
22/11:30am 12.7 WSW 21 24 1028.0 - 0.0 - - - - - - -
22/11:12am 13.3 SW 21 23 1028.2 - 0.0 - - - - - - -
22/11:00am 13.6 WSW 8 11 1028.6 - 0.0 - - - - - - -
22/10:30am 13.5 SW 9 11 1028.8 - 0.0 - - - - - - -
22/10:00am 13.5 W 3 6 1028.6 - 0.0 - - - - - - -
22/09:30am 13.4 SSW 6 9 1028.6 - 0.0 - - - - - - -
22/09:00am 13.1 SSW 5 10 1028.6 - 1.4 - - - - - - -
22/08:30am 13.0 SSW 5 8 1028.4 - 1.4 - - - - - - -
22/08:00am 12.8 SSW 6 10 1028.3 - 1.4 - - - - - - -
22/07:30am 12.9 W 6 13 1027.9 - 1.4 - - - - - - -
22/07:00am 12.6 S 7 10 1027.7 - 1.4 - - - - - - -
22/06:30am 12.6 SSE 10 12 1027.4 - 1.4 - - - - - - -
22/06:00am 12.6 SSW 7 13 1027.1 - 1.4 - - - - - - -
22/05:30am 12.6 S 11 16 1026.7 - 1.4 - - - - - - -
22/05:00am 12.6 SE 9 15 1026.8 - 1.4 - - - - - - -
22/04:30am 12.6 ESE 10 13 1026.8 - 1.4 - - - - - - -
22/04:00am 12.6 ESE 11 15 1026.6 - 1.4 - - - - - - -
22/03:30am 12.6 ESE 10 14 1026.6 - 1.4 - - - - - - -
22/03:00am 12.5 E 10 12 1026.8 - 1.4 - - - - - - -
22/02:30am 12.5 E 10 13 1026.6 - 1.4 - - - - - - -
22/02:00am 12.5 E 11 13 1026.6 - 1.4 - - - - - - -
22/01:30am 12.6 ESE 12 17 1026.6 - 1.4 - - - - - - -
22/01:00am 12.3 E 10 13 1026.7 - 1.4 - - - - - - -
22/12:30am 12.2 ESE 11 14 1026.8 - 1.4 - - - - - - -
22/12:00am 12.2 ESE 14 17 1026.7 - 1.4 - - - - - - -
 
Date/Time
EST
Temp

°C
Wind Pressure Rain
since 9am
mm
Weather Cloud Vis
km
Sea
Height
m
Swell
Dir
 
Speed
knots
Gust
knots
hPa Trend Height
m
Period
s
Dir
21/11:30pm 12.4 ESE 13 17 1026.6 - 1.4 - - - - - - -
21/11:00pm 12.4 E 13 16 1026.6 - 1.4 - - - - - - -
21/10:30pm 12.4 E 12 16 1026.7 - 1.4 - - - - - - -
21/10:00pm 12.6 ESE 16 19 1026.6 - 1.4 - - - - - - -
21/09:30pm 12.7 ESE 16 19 1026.5 - 1.4 - - - - - - -
21/09:00pm 12.7 ESE 15 18 1026.4 - 1.4 - - - - - - -
21/08:30pm 12.9 ESE 15 18 1026.0 - 1.4 - - - - - - -
21/08:00pm 12.9 ESE 15 19 1025.7 - 1.4 - - - - - - -
21/07:30pm 13.0 E 14 18 1025.4 - 1.4 - - - - - - -
21/07:00pm 13.2 E 13 16 1025.2 - 1.4 - - - - - - -
21/06:30pm 13.1 E 12 15 1024.8 - 1.4 - - - - - - -
21/06:00pm 13.1 E 15 19 1024.5 - 1.4 - - - - - - -
21/05:30pm 13.1 E 16 19 1024.2 - 1.4 - - - - - - -
21/05:00pm 13.1 E 16 19 1023.9 - 1.4 - - - - - - -
21/04:30pm 13.1 E 19 22 1023.6 - 1.4 - - - - - - -
21/04:00pm 13.1 E 19 23 1023.2 - 1.4 - - - - - - -
21/03:30pm 13.1 E 20 23 1022.9 - 1.4 - - - - - - -
21/03:00pm 13.0 E 22 26 1022.6 - 1.4 - - - - - - -
21/02:30pm 13.0 E 22 25 1022.2 - 1.4 - - - - - - -
21/02:00pm 12.9 E 23 28 1022.1 - 1.4 - - - - - - -
21/01:30pm 13.0 E 23 26 1021.9 - 1.4 - - - - - - -
21/01:00pm 13.0 E 24 27 1021.9 - 1.4 - - - - - - -
21/12:30pm 12.9 E 25 29 1021.8 - 1.4 - - - - - - -
21/12:00pm 13.3 E 25 29 1021.7 - 1.4 - - - - - - -
21/11:30am 13.4 E 26 30 1021.6 - 1.4 - - - - - - -
21/11:00am 13.7 E 27 31 1021.4 - 1.4 - - - - - - -
21/10:30am 13.4 E 27 32 1021.0 - 1.4 - - - - - - -
21/10:00am 13.4 E 27 33 1020.6 - 1.4 - - - - - - -
21/09:30am 13.3 E 28 34 1020.1 - 1.2 - - - - - - -
21/09:06am 13.6 ESE 24 28 1019.8 - 0.2 - - - - - - -
21/09:00am 13.1 WSW 16 23 1020.0 - 3.4 - - - - - - -
21/08:30am 12.4 WSW 23 27 1019.7 - 0.8 - - - - - - -
21/08:00am 12.6 WSW 23 27 1019.4 - 0.2 - - - - - - -
21/07:30am 12.4 SW 23 27 1019.2 - 0.0 - - - - - - -
21/07:00am 12.7 SSW 12 19 1018.7 - 0.0 - - - - - - -
21/06:30am 12.4 WNW 11 19 1018.3 - 0.0 - - - - - - -
21/06:18am 12.4 SW 17 27 1018.3 - 0.0 - - - - - - -
21/06:00am 12.4 SW 19 28 1018.3 - 0.0 - - - - - - -
21/05:53am 12.3 SW 16 26 1018.1 - 0.0 - - - - - - -
21/05:30am 12.4 SW 22 27 1017.9 - 0.0 - - - - - - -
21/05:00am 12.3 SW 19 24 1017.7 - 0.0 - - - - - - -
21/04:48am 12.2 W 11 26 1017.4 - 0.0 - - - - - - -
21/04:30am 12.2 SW 21 28 1017.2 - 0.0 - - - - - - -
21/04:00am 12.2 SW 20 28 1017.1 - 0.0 - - - - - - -
21/03:42am 12.3 SW 17 27 1016.8 - 0.0 - - - - - - -
21/03:30am 12.4 SW 21 28 1016.7 - 0.0 - - - - - - -
21/03:00am 12.8 SW 22 26 1016.6 - 0.0 - - - - - - -
21/02:30am 13.0 SW 13 21 1016.6 - 0.0 - - - - - - -
21/02:00am 13.2 SW 13 18 1016.5 - 0.0 - - - - - - -
21/01:30am 13.0 SW 21 24 1016.1 - 0.0 - - - - - - -
21/01:00am 13.0 SW 17 25 1015.7 - 0.0 - - - - - - -
21/12:49am 13.2 SW 19 29 1015.6 - 0.0 - - - - - - -
21/12:45am 13.2 SW 21 29 1015.6 - 0.0 - - - - - - -
21/12:30am 13.6 SW 10 19 1015.9 - 0.0 - - - - - - -
21/12:00am 13.4 WSW 19 23 1015.6 - 0.0 - - - - - - -
 
Date/Time
EST
Temp

°C
Wind Pressure Rain
since 9am
mm
Weather Cloud Vis
km
Sea
Height
m
Swell
Dir
 
Speed
knots
Gust
knots
hPa Trend Height
m
Period
s
Dir
20/11:39pm 13.7 WSW 21 22 1015.3 - 0.0 - - - - - - -
20/11:30pm 13.5 W 13 18 1015.5 - 0.0 - - - - - - -
20/11:00pm 13.1 WNW 13 20 1015.2 - 0.0 - - - - - - -
20/10:30pm 13.1 NW 10 17 1015.2 - 0.0 - - - - - - -
20/10:00pm 13.3 WNW 13 19 1015.0 - 0.0 - - - - - - -
20/09:30pm 13.2 WNW 13 20 1014.8 - 0.0 - - - - - - -
20/09:00pm 13.6 NW 18 25 1014.2 - 0.0 - - - - - - -
20/08:47pm 13.8 NW 24 30 1013.8 - 0.0 - - - - - - -
20/08:32pm 14.2 W 17 27 1013.9 - 0.0 - - - - - - -
20/08:30pm 14.2 W 18 27 1013.8 - 0.0 - - - - - - -
20/08:20pm 14.3 W 15 27 1013.7 - 0.0 - - - - - - -
20/08:00pm 14.4 W 14 19 1013.8 - 0.0 - - - - - - -
20/07:30pm 14.5 W 10 16 1013.7 - 0.0 - - - - - - -
20/07:00pm 14.6 W 6 9 1013.4 - 0.0 - - - - - - -
20/06:30pm 14.7 W 12 16 1012.9 - 0.0 - - - - - - -
20/06:00pm 14.7 W 11 17 1012.4 - 0.0 - - - - - - -
20/05:30pm 14.7 W 10 15 1011.9 - 0.0 - - - - - - -
20/05:00pm 14.8 NW 8 19 1011.3 - 0.0 - - - - - - -
20/04:30pm 14.9 WNW 8 17 1011.2 - 0.0 - - - - - - -
20/04:00pm 14.8 WSW 10 19 1010.7 - 0.0 - - - - - - -
20/03:30pm 14.7 W 17 29 1010.1 - 0.0 - - - - - - -
20/03:00pm 14.7 W 20 31 1009.9 - 0.0 - - - - - - -
20/02:30pm 14.9 W 20 31 1009.6 - 0.0 - - - - - - -
20/02:00pm 15.3 W 20 31 1009.5 - 0.0 - - - - - - -
20/01:45pm 15.7 W 15 26 1009.5 - 0.0 - - - - - - -
20/01:30pm 15.5 W 12 26 1009.5 - 0.0 - - - - - - -
20/01:00pm 15.4 W 10 18 1009.4 - 0.0 - - - - - - -
20/12:30pm 15.8 WNW 16 29 1009.3 - 0.0 - - - - - - -
20/12:09pm 16.0 WNW 15 27 1009.2 - 0.0 - - - - - - -
20/12:00pm 15.9 W 13 22 1009.5 - 0.0 - - - - - - -
20/11:40am 15.8 WNW 15 26 1009.4 - 0.0 - - - - - - -
20/11:30am 15.8 WNW 12 23 1009.8 - 0.0 - - - - - - -
20/11:00am 15.7 W 7 15 1010.0 - 0.0 - - - - - - -
20/10:30am 15.9 WNW 8 18 1009.8 - 0.0 - - - - - - -
20/10:00am 15.8 NNW 8 15 1009.6 - 0.0 - - - - - - -
20/09:30am 15.7 NW 9 20 1009.4 - 0.0 - - - - - - -
20/09:00am 15.9 NW 11 22 1009.2 - 2.0 - - - - - - -
20/08:30am 15.9 NW 11 25 1008.9 - 2.0 - - - - - - -
20/08:00am 16.1 NNW 9 21 1008.7 - 2.0 - - - - - - -
20/07:30am 16.1 N 9 19 1008.1 - 2.0 - - - - - - -
20/07:00am 16.0 N 13 22 1007.7 - 2.0 - - - - - - -
20/06:30am 15.8 N 12 23 1007.4 - 2.0 - - - - - - -
20/06:00am 15.4 N 11 22 1007.3 - 2.0 - - - - - - -
20/05:30am 14.0 NNE 9 11 1007.2 - 2.0 - - - - - - -
20/05:00am 15.3 NNW 14 18 1007.3 - 2.0 - - - - - - -
20/04:30am 14.2 NNW 13 22 1007.1 - 2.0 - - - - - - -
20/04:04am 15.4 NNW 15 25 1007.3 - 1.4 - - - - - - -
20/04:00am 15.5 NNW 15 22 1007.3 - 1.4 - - - - - - -
20/03:30am 15.5 NNW 12 23 1007.3 - 1.4 - - - - - - -
20/03:00am 15.5 NNW 15 24 1007.5 - 1.4 - - - - - - -
20/02:55am 15.5 NNW 15 25 1007.5 - 1.4 - - - - - - -
20/02:30am 15.4 NNW 9 18 1007.8 - 1.4 - - - - - - -
20/02:00am 15.3 NW 10 20 1007.8 - 1.4 - - - - - - -
20/01:30am 14.9 NW 11 18 1007.7 - 1.4 - - - - - - -
20/01:00am 14.8 NW 16 25 1007.7 - 1.4 - - - - - - -

Other Formats:

Comma delimited format used in spreadsheet applications
http://www.bom.gov.au/fwo/IDT60701/IDT60701.94893.axf

JavaScript Object Notation format (JSON) in row-major order
http://www.bom.gov.au/fwo/IDT60701/IDT60701.94893.json